Time;durP1;ratioP1;P1;durP2;ratioP2;P2;SDS_P1;SDS_P2;PMS_P1;PMS_P2;Temp;Humidity;BMP_temperature;BMP_pressure;BME280_temperature;BME280_humidity;BME280_pressure;Samples;Min_cycle;Max_cycle;Signal;HPM_P1;HPM_P2
2022/02/01 00:02:17;;;;;;;30.42;4.12;;;;;;;;;;4393043;32;20055;-71
2022/02/01 00:20:05;;;;;;;19.85;3.62;;;;;;;;;;4392784;32;20019;-70
2022/02/01 00:33:45;;;;;;;13.73;2.37;;;;;;;;;;4392813;32;20084;-70
2022/02/01 00:38:55;;;;;;;19.35;3.35;;;;;;;;;;4392218;32;20416;-70
2022/02/01 00:41:26;;;;;;;17.30;3.33;;;;;;;;;;4390633;32;20188;-70
2022/02/01 00:43:51;;;;;;;18.70;2.80;;;;;;;;;;4389569;32;20026;-70
2022/02/01 00:46:16;;;;;;;;;;;;;;;;;;4401403;32;20063;-71
2022/02/01 00:48:42;;;;;;;23.30;4.30;;;;;;;;;;4406441;32;19934;-70
2022/02/01 00:51:11;;;;;;;;;;;;;;;;;;4406329;32;20041;-70
2022/02/01 00:53:37;;;;;;;18.90;2.78;;;;;;;;;;4406787;32;19952;-71
2022/02/01 00:56:02;;;;;;;16.20;2.78;;;;;;;;;;4407561;32;20031;-72
2022/02/01 00:58:27;;;;;;;;;;;;;;;;;;4406369;32;20017;-71
2022/02/01 01:00:53;;;;;;;9.32;2.12;;;;;;;;;;4404629;32;20282;-70
2022/02/01 01:03:18;;;;;;;;;;;;;;;;;;4405888;32;20067;-71
2022/02/01 01:05:43;;;;;;;14.87;3.33;;;;;;;;;;4405341;32;20342;-70
2022/02/01 01:08:08;;;;;;;;;;;;;;;;;;4407398;32;20030;-70
2022/02/01 01:10:34;;;;;;;17.15;4.07;;;;;;;;;;4407247;32;19934;-72
2022/02/01 01:15:45;;;;;;;13.43;2.25;;;;;;;;;;4406402;32;20303;-71
2022/02/01 01:18:52;;;;;;;14.80;2.33;;;;;;;;;;4407182;32;20443;-70
2022/02/01 01:46:29;;;;;;;17.12;2.33;;;;;;;;;;4405843;32;20037;-70
2022/02/01 01:54:22;;;;;;;15.02;2.55;;;;;;;;;;4405952;32;20159;-71
2022/02/01 01:56:47;;;;;;;17.67;2.83;;;;;;;;;;4406009;32;20454;-71
2022/02/01 01:59:13;;;;;;;;;;;;;;;;;;4404290;32;20018;-69
2022/02/01 02:01:38;;;;;;;12.70;2.45;;;;;;;;;;4404906;32;20327;-70
2022/02/01 02:04:03;;;;;;;;;;;;;;;;;;4404113;32;20030;-72
2022/02/01 02:06:31;;;;;;;10.70;3.25;;;;;;;;;;4403666;32;19941;-70
2022/02/01 02:08:56;;;;;;;18.87;3.10;;;;;;;;;;4406211;32;20019;-71
2022/02/01 02:11:31;;;;;;;;;;;;;;;;;;4406815;32;20093;-70
2022/02/01 02:16:42;;;;;;;13.62;2.47;;;;;;;;;;4406795;32;20140;-71
2022/02/01 02:19:08;;;;;;;13.60;2.80;;;;;;;;;;4404868;32;20048;-71
2022/02/01 02:21:33;;;;;;;;;;;;;;;;;;4404032;32;20023;-71
2022/02/01 02:23:58;;;;;;;17.30;3.00;;;;;;;;;;4405228;32;19964;-71
2022/02/01 02:26:23;;;;;;;;;;;;;;;;;;4405472;32;20015;-72
2022/02/01 02:28:49;;;;;;;11.10;2.45;;;;;;;;;;4404980;32;19990;-70
2022/02/01 02:31:14;;;;;;;;;;;;;;;;;;4404086;32;20451;-70
2022/02/01 02:33:39;;;;;;;13.13;2.87;;;;;;;;;;4403366;32;19982;-71
2022/02/01 02:36:07;;;;;;;;;;;;;;;;;;4405280;32;20344;-72
2022/02/01 02:38:52;;;;;;;15.85;2.90;;;;;;;;;;4404538;32;19951;-70
2022/02/01 02:46:38;;;;;;;16.25;3.58;;;;;;;;;;4406315;32;20461;-69
2022/02/01 02:49:03;;;;;;;;;;;;;;;;;;4404285;32;20042;-70
2022/02/01 02:51:28;;;;;;;16.83;2.95;;;;;;;;;;4404819;32;19933;-71
2022/02/01 02:53:53;;;;;;;;;;;;;;;;;;4404888;32;20415;-71
2022/02/01 02:56:18;;;;;;;18.17;3.47;;;;;;;;;;4406396;32;19960;-71
2022/02/01 02:58:43;;;;;;;;;;;;;;;;;;4405710;32;20031;-70
2022/02/01 03:01:09;;;;;;;15.90;2.83;;;;;;;;;;4405214;32;19938;-71
2022/02/01 03:03:35;;;;;;;;;;;;;;;;;;4406543;32;20017;-70
2022/02/01 03:06:06;;;;;;;19.98;3.10;;;;;;;;;;4404620;32;19934;-71
2022/02/01 03:08:32;;;;;;;18.70;4.03;;;;;;;;;;4405358;32;20026;-70
2022/02/01 03:10:57;;;;;;;;;;;;;;;;;;4406589;32;20053;-72
2022/02/01 03:13:27;;;;;;;14.60;2.83;;;;;;;;;;4403242;32;19937;-71
2022/02/01 03:16:03;;;;;;;18.67;3.50;;;;;;;;;;4405034;32;20014;-70
2022/02/01 03:21:12;;;;;;;14.20;3.45;;;;;;;;;;4407592;32;20045;-70
2022/02/01 03:23:37;;;;;;;;;;;;;;;;;;4406225;32;20499;-71
2022/02/01 03:26:02;;;;;;;24.95;3.50;;;;;;;;;;4408634;32;20285;-71
2022/02/01 03:28:27;;;;;;;;;;;;;;;;;;4407754;32;20445;-71
2022/02/01 03:30:53;;;;;;;12.43;2.60;;;;;;;;;;4406917;32;19947;-71
2022/02/01 03:33:18;;;;;;;;;;;;;;;;;;4409159;32;20456;-70
2022/02/01 03:35:43;;;;;;;14.80;2.87;;;;;;;;;;4407071;32;19965;-70
2022/02/01 03:38:08;;;;;;;;;;;;;;;;;;4408970;32;20026;-71
2022/02/01 03:40:33;;;;;;;21.67;3.37;;;;;;;;;;4406964;32;19944;-70
2022/02/01 03:42:58;;;;;;;;;;;;;;;;;;4408776;32;20061;-71
2022/02/01 03:45:23;;;;;;;20.30;3.62;;;;;;;;;;4407334;32;20289;-70
2022/02/01 03:47:49;;;;;;;;;;;;;;;;;;4406022;32;20018;-70
2022/02/01 03:50:14;;;;;;;26.65;3.92;;;;;;;;;;4407077;32;20015;-70
2022/02/01 03:52:39;;;;;;;;;;;;;;;;;;4409023;32;20118;-70
2022/02/01 03:55:04;;;;;;;15.50;3.20;;;;;;;;;;4405959;32;19952;-71
2022/02/01 03:57:30;;;;;;;;;;;;;;;;;;4408577;32;20114;-71
2022/02/01 03:59:55;;;;;;;19.90;3.55;;;;;;;;;;4406508;32;19933;-71
2022/02/01 04:02:20;;;;;;;;;;;;;;;;;;4409242;32;20430;-70
2022/02/01 04:04:49;;;;;;;17.50;3.95;;;;;;;;;;4407206;32;20019;-71
2022/02/01 04:07:14;;;;;;;21.87;2.97;;;;;;;;;;4405999;32;20044;-70
2022/02/01 04:09:39;;;;;;;;;;;;;;;;;;4408669;32;20351;-71
2022/02/01 04:12:06;;;;;;;23.62;4.47;;;;;;;;;;4406859;32;20309;-71
2022/02/01 04:14:33;;;;;;;16.10;3.58;;;;;;;;;;4406158;32;20179;-72
2022/02/01 04:17:00;;;;;;;22.30;5.72;;;;;;;;;;4406728;32;20053;-70
2022/02/01 04:19:27;;;;;;;12.93;2.85;;;;;;;;;;4406551;32;20068;-70
2022/02/01 04:24:20;;;;;;;13.90;2.60;;;;;;;;;;4407761;32;20042;-70
2022/02/01 04:26:45;;;;;;;;;;;;;;;;;;4406987;32;20117;-71
2022/02/01 04:29:10;;;;;;;21.52;3.45;;;;;;;;;;4406810;32;19948;-70
2022/02/01 04:31:36;;;;;;;;;;;;;;;;;;4406639;32;20146;-71
2022/02/01 04:34:01;;;;;;;19.50;3.83;;;;;;;;;;4406020;32;19969;-69
2022/02/01 04:36:26;;;;;;;;;;;;;;;;;;4408595;32;20152;-71
2022/02/01 04:38:57;;;;;;;17.50;4.10;;;;;;;;;;4404901;32;19956;-70
2022/02/01 04:41:22;;;;;;;14.32;4.07;;;;;;;;;;4406543;32;20010;-71
2022/02/01 04:43:47;;;;;;;;;;;;;;;;;;4406745;32;20018;-70
2022/02/01 04:46:14;;;;;;;25.80;5.62;;;;;;;;;;4406278;32;19988;-71
2022/02/01 04:48:39;;;;;;;19.58;4.40;;;;;;;;;;4404740;32;20535;-71
2022/02/01 04:51:04;;;;;;;;;;;;;;;;;;4406230;32;20018;-71
2022/02/01 04:53:29;;;;;;;24.05;5.32;;;;;;;;;;4406010;32;20220;-70
2022/02/01 04:55:54;;;;;;;;;;;;;;;;;;4406007;32;20056;-71
2022/02/01 04:58:24;;;;;;;28.10;6.00;;;;;;;;;;4407452;32;19970;-71
2022/02/01 05:00:49;;;;;;;27.45;6.80;;;;;;;;;;4406364;32;20247;-69
2022/02/01 05:03:15;;;;;;;;;;;;;;;;;;4407160;32;20392;-69
2022/02/01 05:05:40;;;;;;;21.12;6.97;;;;;;;;;;4406483;32;19945;-70
2022/02/01 05:08:07;;;;;;;;;;;;;;;;;;4404850;32;20060;-71
2022/02/01 05:10:33;;;;;;;26.52;6.43;;;;;;;;;;4407301;32;20314;-70
2022/02/01 05:13:18;;;;;;;;;;;;;;;;;;4408043;32;20034;-71
2022/02/01 05:15:43;;;;;;;31.45;5.75;;;;;;;;;;4407688;32;19992;-70
2022/02/01 05:18:15;;;;;;;;;;;;;;;;;;4407053;32;20364;-71
2022/02/01 05:23:08;;;;;;;25.83;6.57;;;;;;;;;;4405502;32;20039;-71
2022/02/01 05:25:34;;;;;;;;;;;;;;;;;;4406427;32;20056;-71
2022/02/01 05:28:00;;;;;;;26.37;6.55;;;;;;;;;;4405989;32;19957;-71
2022/02/01 05:30:25;;;;;;;;;;;;;;;;;;4407249;32;20072;-69
2022/02/01 05:32:51;;;;;;;25.67;6.85;;;;;;;;;;4404002;32;19969;-69
2022/02/01 05:35:16;;;;;;;;;;;;;;;;;;4407007;32;20135;-70
2022/02/01 05:37:41;;;;;;;34.15;7.68;;;;;;;;;;4405232;32;19969;-69
2022/02/01 05:40:08;;;;;;;;;;;;;;;;;;4405498;32;20118;-69
2022/02/01 05:42:45;;;;;;;31.10;8.13;;;;;;;;;;4405807;32;19972;-69
2022/02/01 05:45:11;;;;;;;36.78;10.25;;;;;;;;;;4406620;32;20010;-70
2022/02/01 05:47:36;;;;;;;;;;;;;;;;;;4405405;32;20089;-70
2022/02/01 05:50:01;;;;;;;34.33;11.38;;;;;;;;;;4403915;32;19977;-69
2022/02/01 05:52:26;;;;;;;;;;;;;;;;;;4405885;32;20446;-69
2022/02/01 05:54:51;;;;;;;36.28;10.80;;;;;;;;;;4404910;32;20024;-69
2022/02/01 05:57:17;;;;;;;;;;;;;;;;;;4407564;32;20068;-68
2022/02/01 05:59:42;;;;;;;36.45;12.27;;;;;;;;;;4407423;32;19957;-70
2022/02/01 06:02:07;;;;;;;;;;;;;;;;;;4405215;32;20126;-70
2022/02/01 06:04:32;;;;;;;33.35;11.10;;;;;;;;;;4404698;32;19974;-70
2022/02/01 06:06:57;;;;;;;;;;;;;;;;;;4405701;32;20022;-70
2022/02/01 06:09:22;;;;;;;43.08;10.73;;;;;;;;;;4404758;32;19938;-70
2022/02/01 06:11:47;;;;;;;;;;;;;;;;;;4407210;32;20085;-68
2022/02/01 06:14:13;;;;;;;42.80;11.70;;;;;;;;;;4405346;32;19952;-69
2022/02/01 06:16:38;;;;;;;;;;;;;;;;;;4405072;32;20037;-69
2022/02/01 06:19:03;;;;;;;40.40;12.93;;;;;;;;;;4405253;32;19948;-69
2022/02/01 06:21:28;;;;;;;;;;;;;;;;;;4405277;32;20370;-69
2022/02/01 06:23:53;;;;;;;31.50;12.58;;;;;;;;;;4403147;32;19937;-69
2022/02/01 06:26:22;;;;;;;;;;;;;;;;;;4404016;32;20031;-70
2022/02/01 06:28:47;;;;;;;39.67;15.48;;;;;;;;;;4405864;32;19933;-69
2022/02/01 06:31:12;;;;;;;;;;;;;;;;;;4404949;32;20041;-70
2022/02/01 06:33:37;;;;;;;41.08;17.12;;;;;;;;;;4404818;32;19933;-70
2022/02/01 06:36:02;;;;;;;;;;;;;;;;;;4403546;32;20022;-68
2022/02/01 06:38:27;;;;;;;43.63;17.62;;;;;;;;;;4405541;32;19973;-69
2022/02/01 06:40:52;;;;;;;;;;;;;;;;;;4404409;32;20354;-69
2022/02/01 06:43:18;;;;;;;33.65;14.40;;;;;;;;;;4405919;32;19993;-69
2022/02/01 06:45:43;;;;;;;;;;;;;;;;;;4406078;32;20123;-69
2022/02/01 06:48:08;;;;;;;53.25;14.80;;;;;;;;;;4402861;32;20319;-69
2022/02/01 06:50:34;;;;;;;;;;;;;;;;;;4405947;32;20026;-69
2022/02/01 06:53:02;;;;;;;40.08;13.93;;;;;;;;;;4404836;32;19938;-69
2022/02/01 06:57:59;;;;;;;26.02;12.37;;;;;;;;;;4409003;32;20359;-69
2022/02/01 07:00:24;;;;;;;;;;;;;;;;;;4406357;32;20018;-68
2022/02/01 07:02:50;;;;;;;28.10;12.06;;;;;;;;;;4407794;32;20000;-68
2022/02/01 07:05:15;;;;;;;;;;;;;;;;;;4407921;32;20021;-68
2022/02/01 07:07:40;;;;;;;44.28;13.95;;;;;;;;;;4407443;32;19972;-69
2022/02/01 07:10:05;;;;;;;;;;;;;;;;;;4407459;32;20075;-68
2022/02/01 07:12:30;;;;;;;37.83;14.18;;;;;;;;;;4406654;32;19949;-69
2022/02/01 07:14:55;;;;;;;;;;;;;;;;;;4405181;32;20041;-68
2022/02/01 07:17:20;;;;;;;42.72;16.70;;;;;;;;;;4408352;32;19948;-69
2022/02/01 07:19:45;;;;;;;;;;;;;;;;;;4409113;32;20438;-69
2022/02/01 07:22:11;;;;;;;30.67;13.88;;;;;;;;;;4406524;32;19971;-68
2022/02/01 07:24:48;;;;;;;;;;;;;;;;;;4401495;32;20122;-67
2022/02/01 07:27:32;;;;;;;37.97;12.23;;;;;;;;;;4392299;32;19997;-68
2022/02/01 07:29:57;;;;;;;25.60;11.80;;;;;;;;;;4402764;32;20106;-68
2022/02/01 07:32:22;;;;;;;;;;;;;;;;;;4406962;32;20027;-67
2022/02/01 07:34:47;;;;;;;29.48;11.88;;;;;;;;;;4419070;32;20258;-67
2022/02/01 07:37:12;;;;;;;;;;;;;;;;;;4414006;32;20017;-67
2022/02/01 07:39:37;;;;;;;20.42;9.63;;;;;;;;;;4396409;32;19971;-68
2022/02/01 07:42:02;;;;;;;;;;;;;;;;;;4392268;32;20458;-67
2022/02/01 07:44:27;;;;;;;16.65;9.20;;;;;;;;;;4391046;32;19942;-68
2022/02/01 07:46:53;;;;;;;;;;;;;;;;;;4393767;32;20027;-68
2022/02/01 07:49:21;;;;;;;21.25;9.18;;;;;;;;;;4390478;32;19946;-68
2022/02/01 07:51:46;;;;;;;19.10;9.25;;;;;;;;;;4395323;32;20052;-67
2022/02/01 07:54:11;;;;;;;;;;;;;;;;;;4407212;32;20030;-70
2022/02/01 07:56:37;;;;;;;18.92;8.35;;;;;;;;;;4406581;32;20304;-68
2022/02/01 07:59:02;;;;;;;;;;;;;;;;;;4408529;32;20038;-67
2022/02/01 08:01:27;;;;;;;16.35;8.10;;;;;;;;;;4406259;32;19938;-68
2022/02/01 08:03:52;;;;;;;;;;;;;;;;;;4406651;32;20027;-67
2022/02/01 08:06:17;;;;;;;12.60;8.05;;;;;;;;;;4405545;32;20296;-67
2022/02/01 08:08:42;;;;;;;;;;;;;;;;;;4404949;32;20111;-68
2022/02/01 08:11:12;;;;;;;12.65;8.45;;;;;;;;;;4392582;32;20190;-68
2022/02/01 08:16:38;;;;;;;18.73;10.00;;;;;;;;;;4391069;32;20463;-69
2022/02/01 08:19:22;;;;;;;23.80;9.75;;;;;;;;;;4393040;32;20095;-68
2022/02/01 08:21:50;;;;;;;16.17;9.57;;;;;;;;;;4389603;32;20015;-68
2022/02/01 08:24:15;;;;;;;19.02;9.65;;;;;;;;;;4402021;32;20415;-68
2022/02/01 08:26:40;;;;;;;;;;;;;;;;;;4404571;32;20124;-67
2022/02/01 08:29:07;;;;;;;24.20;9.23;;;;;;;;;;4389733;32;20350;-67
2022/02/01 08:31:32;;;;;;;15.98;9.75;;;;;;;;;;4390782;32;20114;-68
2022/02/01 08:33:57;;;;;;;;;;;;;;;;;;4393134;32;20044;-68
2022/02/01 08:36:22;;;;;;;14.23;9.27;;;;;;;;;;4392001;32;20012;-67
2022/02/01 08:38:47;;;;;;;;;;;;;;;;;;4393155;32;20439;-67
2022/02/01 08:41:13;;;;;;;17.27;8.35;;;;;;;;;;4391030;32;19934;-68
2022/02/01 08:43:38;;;;;;;;;;;;;;;;;;4391218;32;20367;-68
2022/02/01 08:46:03;;;;;;;14.45;7.10;;;;;;;;;;4395792;32;20353;-67
2022/02/01 08:48:28;;;;;;;;;;;;;;;;;;4396013;32;20104;-68
2022/02/01 08:50:55;;;;;;;14.80;7.72;;;;;;;;;;4394637;32;19934;-68
2022/02/01 08:53:24;;;;;;;17.98;7.30;;;;;;;;;;4390918;32;20438;-67
2022/02/01 08:58:19;;;;;;;12.93;6.45;;;;;;;;;;4391993;32;20027;-67
2022/02/01 09:00:44;;;;;;;;;;;;;;;;;;4392171;32;20135;-68
2022/02/01 09:03:11;;;;;;;14.73;6.25;;;;;;;;;;4392077;32;19934;-69
2022/02/01 09:05:39;;;;;;;22.90;7.45;;;;;;;;;;4392488;32;20048;-68
2022/02/01 09:08:04;;;;;;;17.33;7.30;;;;;;;;;;4405290;32;20015;-67
2022/02/01 09:10:29;;;;;;;;;;;;;;;;;;4405466;32;20093;-68
2022/02/01 09:12:54;;;;;;;14.45;6.70;;;;;;;;;;4406001;32;19973;-69
2022/02/01 09:15:19;;;;;;;;;;;;;;;;;;4404224;32;20076;-69
2022/02/01 09:17:45;;;;;;;17.08;6.82;;;;;;;;;;4406911;32;19972;-68
2022/02/01 09:20:10;;;;;;;;;;;;;;;;;;4407042;32;20407;-68
2022/02/01 09:22:35;;;;;;;14.25;6.18;;;;;;;;;;4396258;32;19949;-68
2022/02/01 09:25:00;;;;;;;;;;;;;;;;;;4390619;32;20228;-69
2022/02/01 09:27:25;;;;;;;13.48;6.55;;;;;;;;;;4390096;32;19934;-70
2022/02/01 09:29:50;;;;;;;;;;;;;;;;;;4390619;32;20526;-69
2022/02/01 09:32:16;;;;;;;17.85;8.82;;;;;;;;;;4389746;32;20000;-67
2022/02/01 09:34:41;;;;;;;;;;;;;;;;;;4388995;32;20128;-68
2022/02/01 09:37:06;;;;;;;23.98;8.63;;;;;;;;;;4391741;32;19933;-69
2022/02/01 09:39:32;;;;;;;;;;;;;;;;;;4390485;32;20131;-69
2022/02/01 09:41:59;;;;;;;19.12;8.48;;;;;;;;;;4388418;32;19930;-69
2022/02/01 09:44:24;;;;;;;21.30;9.13;;;;;;;;;;4391168;32;20422;-69
2022/02/01 09:46:51;;;;;;;18.60;9.35;;;;;;;;;;4390202;32;20356;-68
2022/02/01 09:49:17;;;;;;;17.30;9.23;;;;;;;;;;4390417;32;20168;-68
2022/02/01 09:51:42;;;;;;;;;;;;;;;;;;4405040;32;20175;-68
2022/02/01 09:54:07;;;;;;;28.85;12.43;;;;;;;;;;4402470;32;20337;-70
2022/02/01 09:56:32;;;;;;;;;;;;;;;;;;4401831;32;20045;-68
2022/02/01 09:58:57;;;;;;;22.83;11.05;;;;;;;;;;4406587;32;20270;-69
2022/02/01 10:01:23;;;;;;;;;;;;;;;;;;4404336;32;20023;-68
2022/02/01 10:04:02;;;;;;;26.10;11.32;;;;;;;;;;4406311;32;19993;-68
2022/02/01 10:06:31;;;;;;;25.52;11.07;;;;;;;;;;4395325;32;20375;-68
2022/02/01 10:09:03;;;;;;;26.10;12.85;;;;;;;;;;4405792;32;20097;-68
2022/02/01 10:11:36;;;;;;;32.83;15.38;;;;;;;;;;4404963;32;20072;-68
2022/02/01 10:14:03;;;;;;;37.55;13.40;;;;;;;;;;4406442;32;20079;-69
2022/02/01 10:16:32;;;;;;;29.40;15.18;;;;;;;;;;4406034;32;20461;-68
2022/02/01 10:19:07;;;;;;;30.17;13.38;;;;;;;;;;4389325;32;20053;-68
2022/02/01 10:21:32;;;;;;;24.70;10.52;;;;;;;;;;4390028;32;20026;-67
2022/02/01 10:23:57;;;;;;;;;;;;;;;;;;4391705;32;20099;-68
2022/02/01 10:26:23;;;;;;;35.47;14.02;;;;;;;;;;4390775;32;19938;-68
2022/02/01 10:29:05;;;;;;;;;;;;;;;;;;4391248;32;20072;-68
2022/02/01 10:31:46;;;;;;;37.97;17.62;;;;;;;;;;4392643;32;20015;-68
2022/02/01 10:34:54;;;;;;;42.92;17.48;;;;;;;;;;4402276;32;20496;-68
2022/02/01 10:37:01;;;;;;;35.08;17.00;;;;;;;;;;4393688;32;20062;-67
2022/02/01 10:39:28;;;;;;;38.72;16.83;;;;;;;;;;4407667;32;20023;-68
2022/02/01 10:42:01;;;;;;;33.33;16.05;;;;;;;;;;4407272;32;20022;-67
2022/02/01 10:44:37;;;;;;;38.03;16.35;;;;;;;;;;4407359;32;20022;-68
2022/02/01 10:47:02;;;;;;;40.15;15.23;;;;;;;;;;4406311;32;20015;-68
2022/02/01 10:49:28;;;;;;;;;;;;;;;;;;4402861;32;20093;-68
2022/02/01 10:52:00;;;;;;;39.83;12.40;;;;;;;;;;4393257;32;19957;-68
2022/02/01 10:54:26;;;;;;;30.35;12.40;;;;;;;;;;4390599;32;20131;-68
2022/02/01 10:56:51;;;;;;;;;;;;;;;;;;4392756;32;20129;-71
2022/02/01 10:59:16;;;;;;;33.45;9.77;;;;;;;;;;4390279;32;19938;-68
2022/02/01 11:01:41;;;;;;;;;;;;;;;;;;4394368;32;20422;-69
2022/02/01 11:04:08;;;;;;;26.52;8.13;;;;;;;;;;4392737;32;19938;-68
2022/02/01 11:06:35;;;;;;;30.27;8.57;;;;;;;;;;4399456;32;20030;-68
2022/02/01 11:09:01;;;;;;;35.65;7.78;;;;;;;;;;4392200;32;20026;-69
2022/02/01 11:11:26;;;;;;;;;;;;;;;;;;4392798;32;20431;-68
2022/02/01 11:13:51;;;;;;;37.45;8.25;;;;;;;;;;4393026;32;19987;-68
2022/02/01 11:16:16;;;;;;;;;;;;;;;;;;4394170;32;20535;-68
2022/02/01 11:18:51;;;;;;;27.60;7.93;;;;;;;;;;4393896;32;20311;-69
2022/02/01 11:21:16;;;;;;;31.98;8.93;;;;;;;;;;4391377;32;20503;-68
2022/02/01 11:23:47;;;;;;;;;;;;;;;;;;4403161;32;20023;-68
2022/02/01 11:26:26;;;;;;;25.20;8.20;;;;;;;;;;4406793;32;19945;-69
2022/02/01 11:29:14;;;;;;;17.73;5.82;;;;;;;;;;4392809;32;20077;-69
2022/02/01 11:31:44;;;;;;;27.55;6.70;;;;;;;;;;4391118;32;20372;-69
2022/02/01 11:34:17;;;;;;;25.95;6.68;;;;;;;;;;4393061;32;20030;-68
2022/02/01 11:36:42;;;;;;;24.63;6.82;;;;;;;;;;4391567;32;20448;-68
2022/02/01 11:39:07;;;;;;;;;;;;;;;;;;4392517;32;20019;-68
2022/02/01 11:41:34;;;;;;;17.90;6.72;;;;;;;;;;4392699;32;19937;-68
2022/02/01 11:44:06;;;;;;;20.40;6.82;;;;;;;;;;4393069;32;20373;-70
2022/02/01 11:46:31;;;;;;;20.95;6.00;;;;;;;;;;4391677;32;20104;-69
2022/02/01 11:48:56;;;;;;;;;;;;;;;;;;4391227;32;20097;-69
2022/02/01 11:51:23;;;;;;;27.92;5.65;;;;;;;;;;4391291;32;20291;-69
2022/02/01 11:53:55;;;;;;;24.27;6.95;;;;;;;;;;4390588;32;20049;-68
2022/02/01 11:56:29;;;;;;;20.05;5.90;;;;;;;;;;4391688;32;20049;-68
2022/02/01 11:58:59;;;;;;;33.28;7.57;;;;;;;;;;4392312;32;20285;-71
2022/02/01 12:01:28;;;;;;;28.52;6.45;;;;;;;;;;4392409;32;20038;-70
2022/02/01 12:04:10;;;;;;;21.25;5.07;;;;;;;;;;4390096;32;20057;-68
2022/02/01 12:06:46;;;;;;;20.77;5.55;;;;;;;;;;4392556;32;20023;-69
2022/02/01 12:09:19;;;;;;;25.75;7.05;;;;;;;;;;4391280;32;20039;-69
2022/02/01 12:11:45;;;;;;;24.63;5.78;;;;;;;;;;4391868;32;20069;-69
2022/02/01 12:14:10;;;;;;;;;;;;;;;;;;4392719;32;20027;-69
2022/02/01 12:16:35;;;;;;;20.05;5.82;;;;;;;;;;4391314;32;19975;-69
2022/02/01 12:19:00;;;;;;;;;;;;;;;;;;4390992;32;20943;-70
2022/02/01 12:21:25;;;;;;;18.37;4.80;;;;;;;;;;4389373;32;19948;-69
2022/02/01 12:23:51;;;;;;;18.85;6.40;;;;;;;;;;4390792;32;20048;-68
2022/02/01 12:26:21;;;;;;;16.50;5.32;;;;;;;;;;4390978;32;20337;-68
2022/02/01 12:28:47;;;;;;;17.02;5.25;;;;;;;;;;4390987;32;20054;-69
2022/02/01 12:31:12;;;;;;;;;;;;;;;;;;4391097;32;20019;-69
2022/02/01 12:33:44;;;;;;;15.40;4.78;;;;;;;;;;4390613;32;19949;-69
2022/02/01 12:36:11;;;;;;;21.80;4.65;;;;;;;;;;4390755;32;20109;-69
2022/02/01 12:38:36;;;;;;;20.45;5.35;;;;;;;;;;4392076;32;20097;-69
2022/02/01 12:41:12;;;;;;;;;;;;;;;;;;4392486;32;20046;-69
2022/02/01 12:43:55;;;;;;;15.35;4.50;;;;;;;;;;4392066;32;19968;-69
2022/02/01 12:46:39;;;;;;;17.00;5.03;;;;;;;;;;4392801;32;20019;-70
2022/02/01 12:49:04;;;;;;;15.75;4.68;;;;;;;;;;4391556;32;20337;-69
2022/02/01 12:51:29;;;;;;;;;;;;;;;;;;4389605;32;20019;-70
2022/02/01 12:53:54;;;;;;;21.12;5.62;;;;;;;;;;4390716;32;19942;-69
2022/02/01 12:56:20;;;;;;;;;;;;;;;;;;4391833;32;20014;-68
2022/02/01 12:59:01;;;;;;;14.77;4.62;;;;;;;;;;4389104;32;20323;-70
2022/02/01 13:01:30;;;;;;;20.55;5.40;;;;;;;;;;4391757;32;20154;-69
2022/02/01 13:03:55;;;;;;;22.35;6.53;;;;;;;;;;4389022;32;20030;-69
2022/02/01 13:06:21;;;;;;;;;;;;;;;;;;4391112;32;20113;-68
2022/02/01 13:17:23;;;;;;;11.45;4.80;;;;;;;;;;4391733;32;20022;-68
2022/02/01 13:20:07;;;;;;;15.45;3.92;;;;;;;;;;4391187;32;20018;-68
2022/02/01 13:22:33;;;;;;;17.17;4.75;;;;;;;;;;4391656;32;20380;-68
2022/02/01 13:25:01;;;;;;;12.60;4.30;;;;;;;;;;4389679;32;20031;-69
2022/02/01 13:27:26;;;;;;;12.45;4.70;;;;;;;;;;4391519;32;20101;-69
2022/02/01 13:29:51;;;;;;;;;;;;;;;;;;4390131;32;20049;-69
2022/02/01 13:32:16;;;;;;;14.63;4.32;;;;;;;;;;4391032;32;19941;-68
2022/02/01 13:34:42;;;;;;;;;;;;;;;;;;4391786;32;20320;-68
2022/02/01 13:37:09;;;;;;;16.70;4.60;;;;;;;;;;4390418;32;20308;-68
2022/02/01 13:39:38;;;;;;;17.25;4.62;;;;;;;;;;4391330;32;20057;-69
2022/02/01 13:42:08;;;;;;;14.68;5.05;;;;;;;;;;4390674;32;20026;-69
2022/02/01 13:44:33;;;;;;;12.25;4.28;;;;;;;;;;4390923;32;20325;-70
2022/02/01 13:46:58;;;;;;;;;;;;;;;;;;4391618;32;20450;-69
2022/02/01 13:49:24;;;;;;;15.93;4.62;;;;;;;;;;4389023;32;19942;-69
2022/02/01 13:51:49;;;;;;;;;;;;;;;;;;4390915;32;20124;-70
2022/02/01 13:54:14;;;;;;;17.75;4.75;;;;;;;;;;4389459;32;19934;-68
2022/02/01 13:56:45;;;;;;;;;;;;;;;;;;4391948;32;20161;-70
2022/02/01 13:59:12;;;;;;;16.48;3.87;;;;;;;;;;4388418;32;19940;-69
2022/02/01 14:01:40;;;;;;;16.48;3.78;;;;;;;;;;4388069;32;20076;-69
2022/02/01 14:04:12;;;;;;;14.63;3.85;;;;;;;;;;4389581;32;20314;-69
2022/02/01 14:09:56;;;;;;;17.77;3.47;;;;;;;;;;4391141;32;20420;-69
2022/02/01 14:23:46;;;;;;;14.75;4.05;;;;;;;;;;4390758;32;20071;-68
2022/02/01 14:28:29;;;;;;;;;;;;;;;;;;4390407;32;20437;-68
2022/02/01 14:33:55;;;;;;;19.80;4.05;;;;;;;;;;4389898;32;20064;-69
2022/02/01 14:36:21;;;;;;;15.70;4.80;;;;;;;;;;4389572;32;20022;-68
2022/02/01 14:39:08;;;;;;;21.80;5.35;;;;;;;;;;4390769;32;20030;-69
2022/02/01 14:46:42;;;;;;;13.02;3.67;;;;;;;;;;4390656;32;20026;-69
2022/02/01 14:49:08;;;;;;;;;;;;;;;;;;4390975;32;20118;-69
2022/02/01 14:51:33;;;;;;;14.00;3.87;;;;;;;;;;4404991;32;19949;-69
2022/02/01 14:53:58;;;;;;;;;;;;;;;;;;4397081;32;20056;-69
2022/02/01 14:56:33;;;;;;;10.20;4.16;;;;;;;;;;4399412;32;20278;-67
2022/02/01 15:14:43;;;;;;;15.07;3.78;;;;;;;;;;4394291;32;20049;-69
2022/02/01 15:17:14;;;;;;;;;;;;;;;;;;4419391;32;20093;-69
2022/02/01 15:19:39;;;;;;;21.35;3.53;;;;;;;;;;4422265;32;20335;-70
2022/02/01 15:22:04;;;;;;;;;;;;;;;;;;4421444;32;20026;-69
2022/02/01 15:24:29;;;;;;;16.08;3.65;;;;;;;;;;4423857;32;20345;-69
2022/02/01 15:26:54;;;;;;;;;;;;;;;;;;4422656;32;20021;-69
2022/02/01 15:29:20;;;;;;;18.25;3.60;;;;;;;;;;4406167;32;19933;-69
2022/02/01 15:31:45;;;;;;;;;;;;;;;;;;4391827;32;20135;-69
2022/02/01 15:34:10;;;;;;;19.80;3.47;;;;;;;;;;4391013;32;19969;-70
2022/02/01 15:36:37;;;;;;;;;;;;;;;;;;4392358;32;20460;-69
2022/02/01 15:58:07;;;;;;;13.52;4.43;;;;;;;;;;4397990;32;20112;-69
2022/02/01 16:00:36;;;;;;;26.50;4.70;;;;;;;;;;4406043;32;20096;-68
2022/02/01 16:03:08;;;;;;;25.85;4.75;;;;;;;;;;4401010;32;20302;-69
2022/02/01 16:05:33;;;;;;;21.80;4.32;;;;;;;;;;4402496;32;20133;-69
2022/02/01 16:08:00;;;;;;;;;;;;;;;;;;4393884;32;20062;-69
2022/02/01 16:10:49;;;;;;;19.50;3.60;;;;;;;;;;4396115;32;19938;-69
2022/02/01 16:13:22;;;;;;;30.10;4.55;;;;;;;;;;4406652;32;20023;-70
2022/02/01 16:15:47;;;;;;;16.65;4.95;;;;;;;;;;4396231;32;20018;-70
2022/02/01 16:18:13;;;;;;;;;;;;;;;;;;4395372;32;20023;-69
2022/02/01 16:20:38;;;;;;;26.95;4.22;;;;;;;;;;4394327;32;19953;-69
2022/02/01 16:23:03;;;;;;;;;;;;;;;;;;4399765;32;20541;-70
2022/02/01 16:25:28;;;;;;;25.85;4.32;;;;;;;;;;4404691;32;19956;-70
2022/02/01 16:27:54;;;;;;;;;;;;;;;;;;4397075;32;20022;-69
2022/02/01 16:30:20;;;;;;;21.65;4.12;;;;;;;;;;4390158;32;19944;-70
2022/02/01 16:32:46;;;;;;;19.77;4.12;;;;;;;;;;4391995;32;20113;-69
2022/02/01 16:35:11;;;;;;;;;;;;;;;;;;4399866;32;20109;-69
2022/02/01 16:37:37;;;;;;;20.23;5.15;;;;;;;;;;4393098;32;19934;-69
2022/02/01 16:40:03;;;;;;;;;;;;;;;;;;4394417;32;20069;-68
2022/02/01 16:42:31;;;;;;;25.65;3.75;;;;;;;;;;4406058;32;19942;-69
2022/02/01 16:44:56;;;;;;;23.92;4.00;;;;;;;;;;4405470;32;20023;-70
2022/02/01 16:47:21;;;;;;;;;;;;;;;;;;4407600;32;20089;-69
2022/02/01 16:49:47;;;;;;;30.60;5.50;;;;;;;;;;4402219;32;19971;-68
2022/02/01 16:52:19;;;;;;;;;;;;;;;;;;4391697;32;20544;-68
2022/02/01 16:55:01;;;;;;;19.02;4.30;;;;;;;;;;4395740;32;19956;-68
2022/02/01 16:57:33;;;;;;;18.80;3.97;;;;;;;;;;4407075;32;20087;-70
2022/02/01 16:59:59;;;;;;;21.77;5.05;;;;;;;;;;4391629;32;20042;-69
2022/02/01 17:02:24;;;;;;;;;;;;;;;;;;4392189;32;20027;-70
2022/02/01 17:04:49;;;;;;;22.13;4.45;;;;;;;;;;4391233;32;19961;-71
2022/02/01 17:07:14;;;;;;;;;;;;;;;;;;4392070;32;20023;-69
2022/02/01 17:09:39;;;;;;;20.08;4.62;;;;;;;;;;4391913;32;19972;-69
2022/02/01 17:12:27;;;;;;;;;;;;;;;;;;4396694;32;20123;-68
2022/02/01 17:15:06;;;;;;;21.80;4.85;;;;;;;;;;4399187;32;19999;-69
2022/02/01 17:22:47;;;;;;;32.25;5.82;;;;;;;;;;4393730;32;20049;-68
2022/02/01 17:25:12;;;;;;;;;;;;;;;;;;4390409;32;20027;-69
2022/02/01 17:27:37;;;;;;;20.42;4.10;;;;;;;;;;4390348;32;19949;-69
2022/02/01 17:30:02;;;;;;;;;;;;;;;;;;4391039;32;20359;-69
2022/02/01 17:32:28;;;;;;;25.45;5.28;;;;;;;;;;4388562;32;19942;-70
2022/02/01 17:34:53;;;;;;;;;;;;;;;;;;4392419;32;20026;-70
2022/02/01 17:37:18;;;;;;;26.58;5.40;;;;;;;;;;4392908;32;19953;-69
2022/02/01 17:39:43;;;;;;;;;;;;;;;;;;4390858;32;20085;-68
2022/02/01 17:42:09;;;;;;;28.08;4.22;;;;;;;;;;4394262;32;19942;-69
2022/02/01 17:44:34;;;;;;;;;;;;;;;;;;4391638;32;20030;-69
2022/02/01 17:46:59;;;;;;;35.95;5.90;;;;;;;;;;4389747;32;20249;-69
2022/02/01 17:49:24;;;;;;;;;;;;;;;;;;4391904;32;20046;-70
2022/02/01 17:54:34;;;;;;;31.05;5.82;;;;;;;;;;4397073;32;20083;-69
2022/02/01 17:56:59;;;;;;;;;;;;;;;;;;4395633;32;20473;-69